Terminal Aerodrome Forecast
Issued by NWS

Home | Current Version | Previous Version | Text Only | Print | Product List | Glossary On
Versions: 1 2 3 4 5 6 7 8 9 10 11 12 13 14 15 16 17 18 19 20 21 22 23 24 25 26
772
FTUS44 KMOB 261050 AAA
TAFBFM
TAF AMD
KBFM 261050Z 2611/2706 08011KT P6SM VCSH SCT010
     FM261200 13010KT 5SM -SHRA BKN025 OVC035
     FM261600 16011G20KT 4SM TSRA BKN025CB OVC035
     FM270000 18014KT 4SM BR VCSH OVC050=

USA.gov is the U.S. government's official web portal to all federal, state and local government web resources and services.